sensor_id;sensor_type;location;lat;lon;timestamp;pressure;altitude;pressure_sealevel;temperature;humidity
7052;BME280;3567;52.444;13.556;2023-08-08T00:01:11;100594.16;;;14.14;82.57
7052;BME280;3567;52.444;13.556;2023-08-08T00:03:36;100581.44;;;14.09;83.33
7052;BME280;3567;52.444;13.556;2023-08-08T00:06:02;100577.41;;;14.07;83.26
7052;BME280;3567;52.444;13.556;2023-08-08T00:08:27;100577.09;;;14.03;83.17
7052;BME280;3567;52.444;13.556;2023-08-08T00:10:52;100573.84;;;14.01;83.62
7052;BME280;3567;52.444;13.556;2023-08-08T00:13:18;100582.97;;;14.00;83.80
7052;BME280;3567;52.444;13.556;2023-08-08T00:15:43;100578.13;;;13.97;83.65
7052;BME280;3567;52.444;13.556;2023-08-08T00:18:09;100579.69;;;13.93;84.11
7052;BME280;3567;52.444;13.556;2023-08-08T00:20:34;100572.09;;;13.90;84.04
7052;BME280;3567;52.444;13.556;2023-08-08T00:22:59;100575.81;;;13.84;84.54
7052;BME280;3567;52.444;13.556;2023-08-08T00:25:25;100579.31;;;13.84;84.88
7052;BME280;3567;52.444;13.556;2023-08-08T00:27:50;100578.78;;;13.82;84.72
7052;BME280;3567;52.444;13.556;2023-08-08T00:30:16;100576.88;;;13.83;84.78
7052;BME280;3567;52.444;13.556;2023-08-08T00:32:41;100581.16;;;13.79;84.47
7052;BME280;3567;52.444;13.556;2023-08-08T00:35:07;100581.66;;;13.76;84.74
7052;BME280;3567;52.444;13.556;2023-08-08T00:37:32;100590.00;;;13.74;84.58
7052;BME280;3567;52.444;13.556;2023-08-08T00:39:58;100580.81;;;13.70;84.94
7052;BME280;3567;52.444;13.556;2023-08-08T00:42:23;100583.72;;;13.69;84.90
7052;BME280;3567;52.444;13.556;2023-08-08T00:44:49;100593.41;;;13.65;85.36
7052;BME280;3567;52.444;13.556;2023-08-08T00:47:14;100602.78;;;13.62;85.01
7052;BME280;3567;52.444;13.556;2023-08-08T00:49:39;100590.88;;;13.58;84.75
7052;BME280;3567;52.444;13.556;2023-08-08T00:52:06;100600.81;;;13.57;85.08
7052;BME280;3567;52.444;13.556;2023-08-08T00:54:32;100597.84;;;13.54;85.04
7052;BME280;3567;52.444;13.556;2023-08-08T00:56:58;100588.66;;;13.50;85.28
7052;BME280;3567;52.444;13.556;2023-08-08T00:59:23;100599.66;;;13.48;85.38
7052;BME280;3567;52.444;13.556;2023-08-08T01:01:49;100597.47;;;13.45;85.21
7052;BME280;3567;52.444;13.556;2023-08-08T01:04:14;100594.22;;;13.43;85.22
7052;BME280;3567;52.444;13.556;2023-08-08T01:06:54;100600.41;;;13.44;85.49
7052;BME280;3567;52.444;13.556;2023-08-08T01:09:30;100601.47;;;13.43;85.20
7052;BME280;3567;52.444;13.556;2023-08-08T01:11:58;100602.78;;;13.40;85.50
7052;BME280;3567;52.444;13.556;2023-08-08T01:14:25;100607.63;;;13.38;85.60
7052;BME280;3567;52.444;13.556;2023-08-08T01:16:53;100610.25;;;13.33;85.47
7052;BME280;3567;52.444;13.556;2023-08-08T01:19:25;100611.03;;;13.33;85.76
7052;BME280;3567;52.444;13.556;2023-08-08T01:21:53;100604.84;;;13.33;85.78
7052;BME280;3567;52.444;13.556;2023-08-08T01:24:22;100605.59;;;13.28;85.54
7052;BME280;3567;52.444;13.556;2023-08-08T01:26:48;100593.97;;;13.23;85.85
7052;BME280;3567;52.444;13.556;2023-08-08T01:29:14;100605.97;;;13.20;85.91
7052;BME280;3567;52.444;13.556;2023-08-08T01:31:39;100611.63;;;13.19;85.77
7052;BME280;3567;52.444;13.556;2023-08-08T01:34:05;100596.22;;;13.14;85.96
7052;BME280;3567;52.444;13.556;2023-08-08T01:36:35;100593.00;;;13.12;85.89
7052;BME280;3567;52.444;13.556;2023-08-08T01:39:08;100592.09;;;13.06;86.23
7052;BME280;3567;52.444;13.556;2023-08-08T01:41:37;100587.47;;;13.02;86.26
7052;BME280;3567;52.444;13.556;2023-08-08T01:44:03;100596.81;;;12.99;86.55
7052;BME280;3567;52.444;13.556;2023-08-08T01:46:30;100593.59;;;12.97;85.81
7052;BME280;3567;52.444;13.556;2023-08-08T01:48:58;100592.50;;;12.98;85.82
7052;BME280;3567;52.444;13.556;2023-08-08T01:51:24;100594.41;;;12.98;85.74
7052;BME280;3567;52.444;13.556;2023-08-08T01:53:51;100596.28;;;12.97;85.93
7052;BME280;3567;52.444;13.556;2023-08-08T01:56:16;100586.31;;;12.98;85.74
7052;BME280;3567;52.444;13.556;2023-08-08T01:58:41;100583.91;;;12.96;85.53
7052;BME280;3567;52.444;13.556;2023-08-08T02:01:06;100579.25;;;12.92;85.59
7052;BME280;3567;52.444;13.556;2023-08-08T02:03:32;100570.06;;;12.88;85.57
7052;BME280;3567;52.444;13.556;2023-08-08T02:05:57;100577.56;;;12.85;85.54
7052;BME280;3567;52.444;13.556;2023-08-08T02:08:22;100576.75;;;12.85;85.42
7052;BME280;3567;52.444;13.556;2023-08-08T02:10:48;100571.84;;;12.82;86.15
7052;BME280;3567;52.444;13.556;2023-08-08T02:13:13;100569.69;;;12.79;85.88
7052;BME280;3567;52.444;13.556;2023-08-08T02:15:38;100573.19;;;12.79;85.91
7052;BME280;3567;52.444;13.556;2023-08-08T02:18:04;100565.59;;;12.76;85.78
7052;BME280;3567;52.444;13.556;2023-08-08T02:20:29;100565.84;;;12.75;85.45
7052;BME280;3567;52.444;13.556;2023-08-08T02:22:55;100566.66;;;12.75;86.18
7052;BME280;3567;52.444;13.556;2023-08-08T02:25:21;100566.91;;;12.74;85.88
7052;BME280;3567;52.444;13.556;2023-08-08T02:27:46;100555.09;;;12.75;85.80
7052;BME280;3567;52.444;13.556;2023-08-08T02:30:12;100567.16;;;12.72;86.21
7052;BME280;3567;52.444;13.556;2023-08-08T02:32:37;100555.28;;;12.68;85.88
7052;BME280;3567;52.444;13.556;2023-08-08T02:35:03;100558.19;;;12.67;85.84
7052;BME280;3567;52.444;13.556;2023-08-08T02:37:28;100558.44;;;12.65;86.37
7052;BME280;3567;52.444;13.556;2023-08-08T02:39:54;100564.88;;;12.64;86.09
7052;BME280;3567;52.444;13.556;2023-08-08T02:42:19;100565.69;;;12.65;86.08
7052;BME280;3567;52.444;13.556;2023-08-08T02:44:44;100564.88;;;12.64;86.42
7052;BME280;3567;52.444;13.556;2023-08-08T02:47:10;100561.63;;;12.62;86.38
7052;BME280;3567;52.444;13.556;2023-08-08T02:49:35;100557.09;;;12.63;86.43
7052;BME280;3567;52.444;13.556;2023-08-08T02:52:01;100551.72;;;12.63;87.21
7052;BME280;3567;52.444;13.556;2023-08-08T02:54:26;100559.78;;;12.63;86.79
7052;BME280;3567;52.444;13.556;2023-08-08T02:56:51;100561.88;;;12.61;86.76
7052;BME280;3567;52.444;13.556;2023-08-08T02:59:17;100569.94;;;12.61;87.60
7052;BME280;3567;52.444;13.556;2023-08-08T03:01:42;100555.94;;;12.58;87.83
7052;BME280;3567;52.444;13.556;2023-08-08T03:04:08;100559.69;;;12.57;87.65
7052;BME280;3567;52.444;13.556;2023-08-08T03:06:33;100563.19;;;12.58;88.43
7052;BME280;3567;52.444;13.556;2023-08-08T03:08:58;100555.34;;;12.56;88.37
7052;BME280;3567;52.444;13.556;2023-08-08T03:11:24;100556.41;;;12.55;88.80
7052;BME280;3567;52.444;13.556;2023-08-08T03:13:49;100558.03;;;12.56;88.84
7052;BME280;3567;52.444;13.556;2023-08-08T03:16:14;100559.69;;;12.57;88.92
7052;BME280;3567;52.444;13.556;2023-08-08T03:18:40;100560.97;;;12.55;88.73
7052;BME280;3567;52.444;13.556;2023-08-08T03:21:06;100554.31;;;12.57;88.77
7052;BME280;3567;52.444;13.556;2023-08-08T03:23:31;100558.03;;;12.56;89.34
7052;BME280;3567;52.444;13.556;2023-08-08T03:25:56;100567.16;;;12.55;89.50
7052;BME280;3567;52.444;13.556;2023-08-08T03:28:22;100560.16;;;12.54;89.88
7052;BME280;3567;52.444;13.556;2023-08-08T03:30:47;100555.59;;;12.55;89.32
7052;BME280;3567;52.444;13.556;2023-08-08T03:33:13;100553.44;;;12.52;89.90
7052;BME280;3567;52.444;13.556;2023-08-08T03:35:38;100560.66;;;12.51;89.75
7052;BME280;3567;52.444;13.556;2023-08-08T03:38:03;100561.16;;;12.48;90.49
7052;BME280;3567;52.444;13.556;2023-08-08T03:40:30;100563.03;;;12.48;90.56
7052;BME280;3567;52.444;13.556;2023-08-08T03:42:55;100570.03;;;12.49;90.58
7052;BME280;3567;52.444;13.556;2023-08-08T03:45:20;100567.09;;;12.50;90.96
7052;BME280;3567;52.444;13.556;2023-08-08T03:47:46;100560.09;;;12.49;90.73
7052;BME280;3567;52.444;13.556;2023-08-08T03:50:11;100572.72;;;12.49;91.25
7052;BME280;3567;52.444;13.556;2023-08-08T03:52:36;100567.34;;;12.49;91.31
7052;BME280;3567;52.444;13.556;2023-08-08T03:55:04;100565.94;;;12.46;91.41
7052;BME280;3567;52.444;13.556;2023-08-08T03:57:29;100555.19;;;12.46;91.34
7052;BME280;3567;52.444;13.556;2023-08-08T03:59:55;100571.91;;;12.48;91.60
7052;BME280;3567;52.444;13.556;2023-08-08T04:02:20;100568.16;;;12.49;91.83
7052;BME280;3567;52.444;13.556;2023-08-08T04:04:45;100574.09;;;12.51;91.95
7052;BME280;3567;52.444;13.556;2023-08-08T04:07:11;100570.91;;;12.54;92.02
7052;BME280;3567;52.444;13.556;2023-08-08T04:09:36;100563.41;;;12.56;92.29
7052;BME280;3567;52.444;13.556;2023-08-08T04:12:02;100562.94;;;12.59;91.88
7052;BME280;3567;52.444;13.556;2023-08-08T04:14:27;100570.25;;;12.64;92.42
7052;BME280;3567;52.444;13.556;2023-08-08T04:16:53;100577.59;;;12.69;91.80
7052;BME280;3567;52.444;13.556;2023-08-08T04:19:18;100573.31;;;12.73;91.91
7052;BME280;3567;52.444;13.556;2023-08-08T04:21:43;100573.66;;;12.76;92.46
7052;BME280;3567;52.444;13.556;2023-08-08T04:24:09;100571.84;;;12.82;92.29
7052;BME280;3567;52.444;13.556;2023-08-08T04:26:34;100572.75;;;12.88;92.07
7052;BME280;3567;52.444;13.556;2023-08-08T04:28:59;100568.50;;;12.92;91.81
7052;BME280;3567;52.444;13.556;2023-08-08T04:31:25;100568.50;;;12.92;91.85
7052;BME280;3567;52.444;13.556;2023-08-08T04:33:51;100560.50;;;12.97;91.27
7052;BME280;3567;52.444;13.556;2023-08-08T04:36:17;100572.94;;;13.03;91.90
7052;BME280;3567;52.444;13.556;2023-08-08T04:38:42;100566.84;;;13.07;91.20
7052;BME280;3567;52.444;13.556;2023-08-08T04:41:07;100566.34;;;13.10;91.20
7052;BME280;3567;52.444;13.556;2023-08-08T04:43:33;100566.41;;;13.16;91.36
7052;BME280;3567;52.444;13.556;2023-08-08T04:45:58;100573.16;;;13.18;91.06
7052;BME280;3567;52.444;13.556;2023-08-08T04:48:23;100570.81;;;13.22;91.47
7052;BME280;3567;52.444;13.556;2023-08-08T04:50:48;100557.13;;;13.23;90.66
7052;BME280;3567;52.444;13.556;2023-08-08T04:53:14;100570.31;;;13.25;91.02
7052;BME280;3567;52.444;13.556;2023-08-08T04:55:39;100566.31;;;13.27;91.05
7052;BME280;3567;52.444;13.556;2023-08-08T04:58:05;100562.31;;;13.30;91.21
7052;BME280;3567;52.444;13.556;2023-08-08T05:00:30;100562.56;;;13.28;90.38
7052;BME280;3567;52.444;13.556;2023-08-08T05:02:56;100571.44;;;13.29;91.26
7052;BME280;3567;52.444;13.556;2023-08-08T05:05:21;100563.09;;;13.30;90.87
7052;BME280;3567;52.444;13.556;2023-08-08T05:07:46;100570.69;;;13.33;91.02
7052;BME280;3567;52.444;13.556;2023-08-08T05:10:12;100566.66;;;13.36;90.64
7052;BME280;3567;52.444;13.556;2023-08-08T05:12:37;100581.25;;;13.40;90.57
7052;BME280;3567;52.444;13.556;2023-08-08T05:15:03;100571.88;;;13.43;90.39
7052;BME280;3567;52.444;13.556;2023-08-08T05:17:32;100569.75;;;13.45;90.46
7052;BME280;3567;52.444;13.556;2023-08-08T05:19:57;100567.94;;;13.50;90.43
7052;BME280;3567;52.444;13.556;2023-08-08T05:22:22;100566.84;;;13.51;90.38
7052;BME280;3567;52.444;13.556;2023-08-08T05:24:48;100561.03;;;13.59;90.10
7052;BME280;3567;52.444;13.556;2023-08-08T05:27:13;100569.66;;;13.61;90.17
7052;BME280;3567;52.444;13.556;2023-08-08T05:29:38;100571.88;;;13.65;90.60
7052;BME280;3567;52.444;13.556;2023-08-08T05:32:06;100568.09;;;13.66;90.18
7052;BME280;3567;52.444;13.556;2023-08-08T05:34:33;100572.41;;;13.67;89.96
7052;BME280;3567;52.444;13.556;2023-08-08T05:36:58;100562.78;;;13.71;89.92
7052;BME280;3567;52.444;13.556;2023-08-08T05:39:24;100569.81;;;13.77;90.11
7052;BME280;3567;52.444;13.556;2023-08-08T05:41:49;100565.63;;;13.86;90.02
7052;BME280;3567;52.444;13.556;2023-08-08T05:44:15;100564.91;;;13.96;89.77
7052;BME280;3567;52.444;13.556;2023-08-08T05:46:40;100555.59;;;14.08;89.35
7052;BME280;3567;52.444;13.556;2023-08-08T05:49:05;100567.09;;;14.31;89.50
7052;BME280;3567;52.444;13.556;2023-08-08T05:51:32;100566.25;;;14.57;87.86
7052;BME280;3567;52.444;13.556;2023-08-08T05:53:57;100568.53;;;14.76;87.02
7052;BME280;3567;52.444;13.556;2023-08-08T05:56:22;100570.16;;;14.77;86.60
7052;BME280;3567;52.444;13.556;2023-08-08T05:58:48;100571.25;;;14.76;86.08
7052;BME280;3567;52.444;13.556;2023-08-08T06:01:13;100569.03;;;14.73;86.67
7052;BME280;3567;52.444;13.556;2023-08-08T06:03:39;100567.97;;;14.74;86.98
7052;BME280;3567;52.444;13.556;2023-08-08T06:06:04;100563.63;;;14.67;86.37
7052;BME280;3567;52.444;13.556;2023-08-08T06:08:30;100566.03;;;14.69;86.58
7052;BME280;3567;52.444;13.556;2023-08-08T06:10:55;100567.13;;;14.68;87.04
7052;BME280;3567;52.444;13.556;2023-08-08T06:13:21;100570.66;;;14.74;87.00
7052;BME280;3567;52.444;13.556;2023-08-08T06:15:46;100572.03;;;14.76;86.96
7052;BME280;3567;52.444;13.556;2023-08-08T06:18:12;100581.22;;;14.80;86.83
7052;BME280;3567;52.444;13.556;2023-08-08T06:20:37;100570.69;;;14.79;86.56
7052;BME280;3567;52.444;13.556;2023-08-08T06:23:02;100573.97;;;14.81;86.41
7052;BME280;3567;52.444;13.556;2023-08-08T06:25:28;100575.31;;;14.83;86.72
7052;BME280;3567;52.444;13.556;2023-08-08T06:27:59;100576.66;;;14.81;86.88
7052;BME280;3567;52.444;13.556;2023-08-08T06:30:28;100583.13;;;14.85;86.95
7052;BME280;3567;52.444;13.556;2023-08-08T06:32:53;100578.84;;;14.89;86.63
7052;BME280;3567;52.444;13.556;2023-08-08T06:35:18;100583.50;;;14.99;86.44
7052;BME280;3567;52.444;13.556;2023-08-08T06:37:44;100581.94;;;15.08;86.30
7052;BME280;3567;52.444;13.556;2023-08-08T06:40:10;100576.28;;;15.14;85.33
7052;BME280;3567;52.444;13.556;2023-08-08T06:42:36;100575.75;;;15.17;85.35
7052;BME280;3567;52.444;13.556;2023-08-08T06:45:01;100579.03;;;15.19;85.57
7052;BME280;3567;52.444;13.556;2023-08-08T06:47:27;100576.59;;;15.18;85.05
7052;BME280;3567;52.444;13.556;2023-08-08T06:49:52;100590.31;;;15.16;85.55
7052;BME280;3567;52.444;13.556;2023-08-08T06:52:17;100580.63;;;15.15;85.27
7052;BME280;3567;52.444;13.556;2023-08-08T06:54:43;100590.09;;;15.18;85.33
7052;BME280;3567;52.444;13.556;2023-08-08T06:57:08;100584.44;;;15.25;85.19
7052;BME280;3567;52.444;13.556;2023-08-08T06:59:33;100580.38;;;15.27;84.33
7052;BME280;3567;52.444;13.556;2023-08-08T07:01:59;100595.25;;;15.30;84.08
7052;BME280;3567;52.444;13.556;2023-08-08T07:04:24;100582.31;;;15.32;84.57
7052;BME280;3567;52.444;13.556;2023-08-08T07:06:50;100588.25;;;15.39;85.24
7052;BME280;3567;52.444;13.556;2023-08-08T07:09:16;100577.47;;;15.39;84.76
7052;BME280;3567;52.444;13.556;2023-08-08T07:11:41;100584.53;;;15.45;84.73
7052;BME280;3567;52.444;13.556;2023-08-08T07:14:06;100596.38;;;15.44;83.57
7052;BME280;3567;52.444;13.556;2023-08-08T07:16:32;100593.69;;;15.44;84.02
7052;BME280;3567;52.444;13.556;2023-08-08T07:18:57;100589.69;;;15.52;84.23
7052;BME280;3567;52.444;13.556;2023-08-08T07:21:22;100593.81;;;15.69;83.18
7052;BME280;3567;52.444;13.556;2023-08-08T07:23:48;100592.75;;;15.81;82.24
7052;BME280;3567;52.444;13.556;2023-08-08T07:26:13;100591.19;;;16.00;82.27
7052;BME280;3567;52.444;13.556;2023-08-08T07:28:39;100580.38;;;16.15;82.35
7052;BME280;3567;52.444;13.556;2023-08-08T07:31:04;100577.13;;;16.23;80.92
7052;BME280;3567;52.444;13.556;2023-08-08T07:33:29;100590.66;;;16.34;82.06
7052;BME280;3567;52.444;13.556;2023-08-08T07:35:55;100586.88;;;16.50;81.31
7052;BME280;3567;52.444;13.556;2023-08-08T07:38:20;100589.03;;;16.68;79.88
7052;BME280;3567;52.444;13.556;2023-08-08T07:40:45;100591.75;;;16.79;79.90
7052;BME280;3567;52.444;13.556;2023-08-08T07:43:12;100586.06;;;16.80;78.27
7052;BME280;3567;52.444;13.556;2023-08-08T07:45:37;100580.94;;;16.79;79.40
7052;BME280;3567;52.444;13.556;2023-08-08T07:48:04;100577.16;;;16.74;78.95
7052;BME280;3567;52.444;13.556;2023-08-08T07:50:30;100585.78;;;16.76;79.27
7052;BME280;3567;52.444;13.556;2023-08-08T07:52:55;100575.53;;;16.79;79.25
7052;BME280;3567;52.444;13.556;2023-08-08T07:55:20;100587.13;;;16.84;78.98
7052;BME280;3567;52.444;13.556;2023-08-08T07:57:46;100583.63;;;16.84;78.86
7052;BME280;3567;52.444;13.556;2023-08-08T08:00:12;100586.88;;;16.81;79.22
7052;BME280;3567;52.444;13.556;2023-08-08T08:02:39;100582.81;;;16.83;79.22
7052;BME280;3567;52.444;13.556;2023-08-08T08:05:04;100580.13;;;16.83;78.78
7052;BME280;3567;52.444;13.556;2023-08-08T08:07:33;100587.38;;;16.93;78.91
7052;BME280;3567;52.444;13.556;2023-08-08T08:09:58;100577.06;;;17.05;79.27
7052;BME280;3567;52.444;13.556;2023-08-08T08:12:24;100582.69;;;17.24;79.10
7052;BME280;3567;52.444;13.556;2023-08-08T08:14:49;100576.41;;;17.39;77.65
7052;BME280;3567;52.444;13.556;2023-08-08T08:17:15;100572.56;;;17.45;77.20
7052;BME280;3567;52.444;13.556;2023-08-08T08:19:40;100578.47;;;17.57;77.33
7052;BME280;3567;52.444;13.556;2023-08-08T08:22:05;100565.22;;;17.55;75.44
7052;BME280;3567;52.444;13.556;2023-08-08T08:24:31;100566.31;;;17.54;76.16
7052;BME280;3567;52.444;13.556;2023-08-08T08:26:56;100576.09;;;17.45;75.90
7052;BME280;3567;52.444;13.556;2023-08-08T08:29:21;100570.94;;;17.49;76.00
7052;BME280;3567;52.444;13.556;2023-08-08T08:31:47;100572.25;;;17.57;76.64
7052;BME280;3567;52.444;13.556;2023-08-08T08:34:12;100575.78;;;17.52;75.41
7052;BME280;3567;52.444;13.556;2023-08-08T08:36:37;100566.59;;;17.53;74.82
7052;BME280;3567;52.444;13.556;2023-08-08T08:39:03;100552.13;;;17.73;75.13
7052;BME280;3567;52.444;13.556;2023-08-08T08:41:31;100562.63;;;17.90;73.83
7052;BME280;3567;52.444;13.556;2023-08-08T08:43:57;100558.16;;;18.04;72.98
7052;BME280;3567;52.444;13.556;2023-08-08T08:46:25;100550.69;;;18.25;72.03
7052;BME280;3567;52.444;13.556;2023-08-08T08:48:51;100560.09;;;18.38;71.38
7052;BME280;3567;52.444;13.556;2023-08-08T08:51:18;100552.25;;;18.31;71.07
7052;BME280;3567;52.444;13.556;2023-08-08T08:53:44;100552.34;;;18.21;71.54
7052;BME280;3567;52.444;13.556;2023-08-08T08:56:13;100557.34;;;18.03;72.45
7052;BME280;3567;52.444;13.556;2023-08-08T08:58:39;100561.75;;;17.94;72.62
7052;BME280;3567;52.444;13.556;2023-08-08T09:01:05;100565.78;;;18.02;73.05
7052;BME280;3567;52.444;13.556;2023-08-08T09:03:32;100563.47;;;18.19;73.16
7052;BME280;3567;52.444;13.556;2023-08-08T09:05:58;100559.16;;;18.18;73.12
7052;BME280;3567;52.444;13.556;2023-08-08T09:08:24;100565.66;;;18.17;72.73
7052;BME280;3567;52.444;13.556;2023-08-08T09:10:50;100571.09;;;18.17;72.91
7052;BME280;3567;52.444;13.556;2023-08-08T09:13:16;100565.00;;;18.30;73.22
7052;BME280;3567;52.444;13.556;2023-08-08T09:15:42;100549.94;;;18.48;72.51
7052;BME280;3567;52.444;13.556;2023-08-08T09:18:07;100547.66;;;18.61;70.07
7052;BME280;3567;52.444;13.556;2023-08-08T09:20:32;100549.50;;;18.65;70.93
7052;BME280;3567;52.444;13.556;2023-08-08T09:22:58;100549.94;;;18.77;71.94
7052;BME280;3567;52.444;13.556;2023-08-08T09:25:24;100541.00;;;19.01;70.45
7052;BME280;3567;52.444;13.556;2023-08-08T09:27:53;100549.75;;;19.17;68.40
7052;BME280;3567;52.444;13.556;2023-08-08T09:30:19;100536.44;;;19.20;67.22
7052;BME280;3567;52.444;13.556;2023-08-08T09:32:45;100539.13;;;19.20;67.41
7052;BME280;3567;52.444;13.556;2023-08-08T09:35:10;100552.53;;;19.35;68.10
7052;BME280;3567;52.444;13.556;2023-08-08T09:37:36;100545.16;;;19.60;66.17
7052;BME280;3567;52.444;13.556;2023-08-08T09:40:04;100538.91;;;19.78;64.82
7052;BME280;3567;52.444;13.556;2023-08-08T09:42:30;100529.31;;;19.67;64.07
7052;BME280;3567;52.444;13.556;2023-08-08T09:44:57;100525.66;;;19.53;64.58
7052;BME280;3567;52.444;13.556;2023-08-08T09:47:22;100527.50;;;19.57;65.23
7052;BME280;3567;52.444;13.556;2023-08-08T09:49:48;100522.66;;;19.54;61.99
7052;BME280;3567;52.444;13.556;2023-08-08T09:52:14;100526.28;;;19.50;63.09
7052;BME280;3567;52.444;13.556;2023-08-08T09:54:40;100520.38;;;19.43;62.72
7052;BME280;3567;52.444;13.556;2023-08-08T09:57:06;100520.00;;;19.49;63.15
7052;BME280;3567;52.444;13.556;2023-08-08T09:59:32;100511.47;;;19.61;63.58
7052;BME280;3567;52.444;13.556;2023-08-08T10:01:58;100515.56;;;19.77;63.67
7052;BME280;3567;52.444;13.556;2023-08-08T10:04:24;100505.44;;;19.83;62.97
7052;BME280;3567;52.444;13.556;2023-08-08T10:06:51;100508.56;;;19.90;62.83
7052;BME280;3567;52.444;13.556;2023-08-08T10:09:17;100507.53;;;20.05;63.26
7052;BME280;3567;52.444;13.556;2023-08-08T10:11:43;100494.78;;;20.19;60.71
7052;BME280;3567;52.444;13.556;2023-08-08T10:14:10;100502.63;;;20.21;60.37
7052;BME280;3567;52.444;13.556;2023-08-08T10:16:37;100497.00;;;20.31;59.18
7052;BME280;3567;52.444;13.556;2023-08-08T10:19:04;100496.47;;;20.15;59.05
7052;BME280;3567;52.444;13.556;2023-08-08T10:21:48;100492.31;;;20.04;60.36
7052;BME280;3567;52.444;13.556;2023-08-08T10:24:20;100513.34;;;19.79;61.27
7052;BME280;3567;52.444;13.556;2023-08-08T10:26:59;100509.56;;;19.61;61.56
7052;BME280;3567;52.444;13.556;2023-08-08T10:29:28;100509.38;;;19.53;62.35
7052;BME280;3567;52.444;13.556;2023-08-08T10:32:02;100508.31;;;19.49;63.42
7052;BME280;3567;52.444;13.556;2023-08-08T10:34:44;100486.66;;;19.44;63.14
7052;BME280;3567;52.444;13.556;2023-08-08T10:37:14;100495.06;;;19.47;64.27
7052;BME280;3567;52.444;13.556;2023-08-08T10:40:00;100489.69;;;19.80;64.68
7052;BME280;3567;52.444;13.556;2023-08-08T10:42:27;100485.53;;;20.01;64.20
7052;BME280;3567;52.444;13.556;2023-08-08T10:44:54;100479.63;;;20.13;61.69
7052;BME280;3567;52.444;13.556;2023-08-08T10:47:37;100487.97;;;20.03;60.51
7052;BME280;3567;52.444;13.556;2023-08-08T10:50:05;100514.63;;;19.68;60.70
7052;BME280;3567;52.444;13.556;2023-08-08T10:55:26;100511.28;;;18.62;66.00
7052;BME280;3567;52.444;13.556;2023-08-08T10:57:59;100501.44;;;18.42;67.79
7052;BME280;3567;52.444;13.556;2023-08-08T11:00:27;100505.06;;;18.32;69.12
7052;BME280;3567;52.444;13.556;2023-08-08T11:02:53;100501.22;;;18.38;69.56
7052;BME280;3567;52.444;13.556;2023-08-08T11:05:19;100508.72;;;18.46;70.20
7052;BME280;3567;52.444;13.556;2023-08-08T11:07:45;100503.50;;;18.55;70.76
7052;BME280;3567;52.444;13.556;2023-08-08T11:10:11;100499.16;;;18.54;71.93
7052;BME280;3567;52.444;13.556;2023-08-08T11:12:36;100499.16;;;18.54;71.55
7052;BME280;3567;52.444;13.556;2023-08-08T11:15:02;100504.16;;;18.71;71.69
7052;BME280;3567;52.444;13.556;2023-08-08T11:17:27;100493.75;;;19.45;70.97
7052;BME280;3567;52.444;13.556;2023-08-08T11:19:53;100489.63;;;20.18;67.74
7052;BME280;3567;52.444;13.556;2023-08-08T11:22:21;100498.00;;;20.81;65.13
7052;BME280;3567;52.444;13.556;2023-08-08T11:24:48;100489.16;;;21.39;62.74
7052;BME280;3567;52.444;13.556;2023-08-08T11:27:15;100479.53;;;21.78;60.99
7052;BME280;3567;52.444;13.556;2023-08-08T11:29:40;100491.44;;;22.05;59.47
7052;BME280;3567;52.444;13.556;2023-08-08T11:32:06;100486.75;;;21.96;59.04
7052;BME280;3567;52.444;13.556;2023-08-08T11:34:33;100485.50;;;21.58;59.09
7052;BME280;3567;52.444;13.556;2023-08-08T11:37:00;100486.19;;;21.63;61.33
7052;BME280;3567;52.444;13.556;2023-08-08T11:39:26;100488.97;;;21.94;60.23
7052;BME280;3567;52.444;13.556;2023-08-08T11:41:52;100496.19;;;21.54;59.58
7052;BME280;3567;52.444;13.556;2023-08-08T11:44:17;100517.38;;;20.93;60.98
7052;BME280;3567;52.444;13.556;2023-08-08T11:46:46;100523.41;;;19.79;60.35
7052;BME280;3567;52.444;13.556;2023-08-08T11:49:14;100541.34;;;18.94;63.64
7052;BME280;3567;52.444;13.556;2023-08-08T11:51:43;100552.78;;;17.99;69.20
7052;BME280;3567;52.444;13.556;2023-08-08T11:54:08;100532.00;;;17.40;72.62
7052;BME280;3567;52.444;13.556;2023-08-08T11:56:34;100528.59;;;17.14;74.72
7052;BME280;3567;52.444;13.556;2023-08-08T11:59:00;100525.91;;;17.03;77.08
7052;BME280;3567;52.444;13.556;2023-08-08T12:01:26;100519.63;;;17.23;78.34
7052;BME280;3567;52.444;13.556;2023-08-08T12:03:52;100522.47;;;17.52;78.84
7052;BME280;3567;52.444;13.556;2023-08-08T12:06:19;100510.44;;;17.69;79.03
7052;BME280;3567;52.444;13.556;2023-08-08T12:08:45;100505.66;;;17.95;78.66
7052;BME280;3567;52.444;13.556;2023-08-08T12:11:12;100507.78;;;18.85;79.34
7052;BME280;3567;52.444;13.556;2023-08-08T12:13:39;100507.22;;;19.31;77.16
7052;BME280;3567;52.444;13.556;2023-08-08T12:16:06;100510.41;;;19.57;75.61
7052;BME280;3567;52.444;13.556;2023-08-08T12:18:32;100494.97;;;20.23;73.84
7052;BME280;3567;52.444;13.556;2023-08-08T12:20:58;100490.00;;;21.12;70.66
7052;BME280;3567;52.444;13.556;2023-08-08T12:23:24;100489.41;;;21.65;66.35
7052;BME280;3567;52.444;13.556;2023-08-08T12:25:50;100480.81;;;22.17;64.58
7052;BME280;3567;52.444;13.556;2023-08-08T12:28:15;100489.91;;;22.83;62.52
7052;BME280;3567;52.444;13.556;2023-08-08T12:30:41;100488.59;;;23.38;58.49
7052;BME280;3567;52.444;13.556;2023-08-08T12:33:06;100486.72;;;23.82;58.09
7052;BME280;3567;52.444;13.556;2023-08-08T12:35:32;100489.09;;;24.00;55.92
7052;BME280;3567;52.444;13.556;2023-08-08T12:37:57;100465.97;;;24.45;54.28
7052;BME280;3567;52.444;13.556;2023-08-08T12:40:22;100472.34;;;24.11;53.28
7052;BME280;3567;52.444;13.556;2023-08-08T12:42:50;100478.59;;;22.98;51.42
7052;BME280;3567;52.444;13.556;2023-08-08T12:45:16;100509.13;;;21.85;55.08
7052;BME280;3567;52.444;13.556;2023-08-08T12:47:43;100508.69;;;20.64;56.27
7052;BME280;3567;52.444;13.556;2023-08-08T12:50:09;100505.81;;;20.09;58.97
7052;BME280;3567;52.444;13.556;2023-08-08T12:52:35;100498.00;;;19.88;60.80
7052;BME280;3567;52.444;13.556;2023-08-08T12:55:01;100484.81;;;20.28;62.71
7052;BME280;3567;52.444;13.556;2023-08-08T12:57:26;100484.34;;;21.23;60.19